Terminal Aerodrome Forecast
Issued by NWS Charleston, WV

Current Version | Previous Version | Text Only | Print | Product List | Glossary Off
Versions: 1 2 3 4 5 6 7 8 9 10 11 12 13 14 15 16 17 18 19 20 21 22

000
FTUS41 KRLX 220910 AAA
TAFEKN
TAF AMD
KEKN 220910Z 2209/2306 35012G19KT P6SM BKN050
      TEMPO 2209/2212 BKN030
     FM221200 32012G19KT P6SM SCT040
     FM221400 32010KT P6SM FEW200
     FM222300 35005KT P6SM FEW250=

USA.gov is the U.S. government's official web portal to all federal, state and local government web resources and services.